createdAt,value
2022-11-09T00:00:58.092Z,99531.72
2022-11-09T00:03:27.649Z,99524.69
2022-11-09T00:05:58.224Z,99531.72
2022-11-09T00:08:27.774Z,99524.69
2022-11-09T00:11:05.222Z,99520.44
2022-11-09T00:13:35.166Z,99518.84
2022-11-09T00:16:05.883Z,99515.44
2022-11-09T00:18:38.244Z,99527.06
2022-11-09T00:21:11.175Z,99525.34
2022-11-09T00:23:40.770Z,99520.25
2022-11-09T00:26:15.031Z,99527.47
2022-11-09T00:28:44.814Z,99522.38
2022-11-09T00:31:17.439Z,99524.22
2022-11-09T00:33:51.073Z,99529.66
2022-11-09T00:36:22.194Z,99520.78
2022-11-09T00:38:53.375Z,99512.06
2022-11-09T00:41:26.009Z,99509.53
2022-11-09T00:43:55.943Z,99510.59
2022-11-09T00:46:26.550Z,99517.00
2022-11-09T00:48:57.199Z,99524.22
2022-11-09T00:51:27.186Z,99508.47
2022-11-09T00:53:58.560Z,99507.72
2022-11-09T00:56:30.873Z,99502.50
2022-11-09T00:59:00.417Z,99500.91
2022-11-09T01:01:30.381Z,99504.75
2022-11-09T01:04:00.367Z,99505.09
2022-11-09T01:06:30.078Z,99512.44
2022-11-09T01:09:00.748Z,99508.28
2022-11-09T01:11:32.932Z,99509.47
2022-11-09T01:14:03.247Z,99515.84
2022-11-09T01:16:33.063Z,99517.78
2022-11-09T01:19:02.855Z,99527.59
2022-11-09T01:21:32.433Z,99527.78
2022-11-09T01:24:03.290Z,99534.16
2022-11-09T01:26:35.471Z,99532.47
2022-11-09T01:29:05.039Z,99540.47
2022-11-09T01:31:36.166Z,99543.97
2022-11-09T01:34:05.800Z,99533.31
2022-11-09T01:36:36.174Z,99537.69
2022-11-09T01:39:05.744Z,99537.78
2022-11-09T01:41:37.874Z,99550.13
2022-11-09T01:44:09.901Z,99544.91
2022-11-09T01:46:45.535Z,99548.53
2022-11-09T01:49:18.694Z,99546.72
2022-11-09T01:51:51.874Z,99536.09
2022-11-09T01:54:23.804Z,99529.03
2022-11-09T01:56:59.614Z,99548.53
2022-11-09T01:59:32.340Z,99541.41
2022-11-09T02:02:02.667Z,99541.41
2022-11-09T02:04:36.785Z,99540.63
2022-11-09T02:07:07.778Z,99541.59
2022-11-09T02:09:42.138Z,99528.41
2022-11-09T02:12:14.657Z,99543.28
2022-11-09T02:14:44.404Z,99535.25
2022-11-09T02:17:14.472Z,99541.06
2022-11-09T02:19:44.228Z,99527.78
2022-11-09T02:22:16.906Z,99521.41
2022-11-09T02:24:46.439Z,99528.66
2022-11-09T02:27:16.236Z,99536.75
2022-11-09T02:29:47.698Z,99540.13
2022-11-09T02:32:20.491Z,99542.78
2022-11-09T02:34:50.624Z,99532.16
2022-11-09T02:37:31.171Z,99525.97
2022-11-09T02:40:01.956Z,99532.38
2022-11-09T02:42:32.089Z,99530.84
2022-11-09T02:45:02.532Z,99535.41
2022-11-09T02:47:32.727Z,99535.41
2022-11-09T02:50:02.320Z,99530.84
2022-11-09T02:52:34.528Z,99534.34
2022-11-09T02:55:04.818Z,99536.94
2022-11-09T02:57:35.881Z,99537.56
2022-11-09T03:00:06.443Z,99547.16
2022-11-09T03:02:38.412Z,99539.19
2022-11-09T03:05:09.571Z,99540.97
2022-11-09T03:07:44.816Z,99536.75
2022-11-09T03:10:15.328Z,99538.81
2022-11-09T03:12:45.035Z,99534.91
2022-11-09T03:15:17.897Z,99535.19
2022-11-09T03:17:49.469Z,99533.72
2022-11-09T03:20:21.323Z,99533.72
2022-11-09T03:22:53.921Z,99530.94
2022-11-09T03:25:23.586Z,99526.38
2022-11-09T03:27:53.426Z,99534.13
2022-11-09T03:30:23.126Z,99526.81
2022-11-09T03:32:52.791Z,99527.53
2022-11-09T03:35:22.499Z,99533.50
2022-11-09T03:37:54.844Z,99535.03
2022-11-09T03:40:25.079Z,99535.75
2022-11-09T03:42:54.786Z,99543.53
2022-11-09T03:45:24.895Z,99547.78
2022-11-09T03:47:56.955Z,99545.88
2022-11-09T03:50:26.607Z,99549.25
2022-11-09T03:52:59.067Z,99554.38
2022-11-09T03:55:28.786Z,99555.88
2022-11-09T03:57:58.413Z,99557.47
2022-11-09T04:00:28.531Z,99544.78
2022-11-09T04:02:58.570Z,99546.28
2022-11-09T04:05:28.804Z,99556.72
2022-11-09T04:08:01.197Z,99557.44
2022-11-09T04:10:30.786Z,99553.94
2022-11-09T04:13:00.387Z,99552.25
2022-11-09T04:15:29.996Z,99555.00
2022-11-09T04:18:00.412Z,99555.00
2022-11-09T04:20:31.603Z,99557.66
2022-11-09T04:23:07.288Z,99555.84
2022-11-09T04:25:38.820Z,99554.91
2022-11-09T04:28:10.778Z,99558.28
2022-11-09T04:30:40.681Z,99553.94
2022-11-09T04:33:10.255Z,99556.50
2022-11-09T04:35:39.854Z,99564.59
2022-11-09T04:38:14.815Z,99566.28
2022-11-09T04:40:44.979Z,99560.94
2022-11-09T04:43:16.375Z,99562.88
2022-11-09T04:45:47.409Z,99562.88
2022-11-09T04:48:17.085Z,99558.41
2022-11-09T04:50:46.655Z,99567.25
2022-11-09T04:53:18.962Z,99565.53
2022-11-09T04:55:48.505Z,99574.47
2022-11-09T04:58:23.799Z,99574.47
2022-11-09T05:00:54.539Z,99578.00
2022-11-09T05:03:24.246Z,99586.84
2022-11-09T05:05:53.970Z,99589.38
2022-11-09T05:08:26.353Z,99592.88
2022-11-09T05:10:59.411Z,99598.31
2022-11-09T05:13:29.017Z,99604.63
2022-11-09T05:15:58.583Z,99610.13
2022-11-09T05:18:28.121Z,99607.03
2022-11-09T05:21:01.505Z,99605.66
2022-11-09T05:23:46.393Z,99596.41
2022-11-09T05:26:16.167Z,99597.69
2022-11-09T05:28:45.739Z,99603.25
2022-11-09T05:31:15.301Z,99604.19
2022-11-09T05:33:44.870Z,99607.78
2022-11-09T05:36:14.426Z,99608.63
2022-11-09T05:38:46.639Z,99608.56
2022-11-09T05:41:16.469Z,99603.31
2022-11-09T05:43:47.292Z,99612.38
2022-11-09T05:46:17.932Z,99611.81
2022-11-09T05:48:47.922Z,99612.03
2022-11-09T05:51:18.556Z,99612.22
2022-11-09T05:53:50.951Z,99600.28
2022-11-09T05:56:20.562Z,99599.00
2022-11-09T05:58:50.163Z,99599.63
2022-11-09T06:01:21.456Z,99587.03
2022-11-09T06:03:51.060Z,99586.03
2022-11-09T06:06:20.635Z,99591.13
2022-11-09T06:08:52.841Z,99591.44
2022-11-09T06:11:24.347Z,99594.38
2022-11-09T06:13:54.767Z,99601.88
2022-11-09T06:16:24.366Z,99601.53
2022-11-09T06:18:53.911Z,99604.91
2022-11-09T06:21:23.466Z,99609.75
2022-11-09T06:23:55.608Z,99600.44
2022-11-09T06:26:25.196Z,99601.78
2022-11-09T06:28:54.738Z,99597.63
2022-11-09T06:31:24.427Z,99595.09
2022-11-09T06:33:54.018Z,99605.78
2022-11-09T06:36:24.088Z,99614.69
2022-11-09T06:38:56.321Z,99603.34
2022-11-09T06:41:25.907Z,99606.16
2022-11-09T06:43:55.525Z,99608.81
2022-11-09T06:46:25.157Z,99614.91
2022-11-09T06:48:54.846Z,99616.69
2022-11-09T06:51:24.441Z,99627.22
2022-11-09T06:53:56.632Z,99621.94
2022-11-09T06:56:26.214Z,99626.25
2022-11-09T06:58:55.805Z,99626.16
2022-11-09T07:01:30.081Z,99627.88
2022-11-09T07:04:00.089Z,99636.59
2022-11-09T07:06:29.781Z,99648.91
2022-11-09T07:09:02.467Z,99644.47
2022-11-09T07:11:32.077Z,99647.03
2022-11-09T07:14:02.796Z,99641.63
2022-11-09T07:16:32.573Z,99657.53
2022-11-09T07:19:02.186Z,99656.81
2022-11-09T07:21:31.775Z,99662.13
2022-11-09T07:24:03.926Z,99664.66
2022-11-09T07:26:33.502Z,99666.28
2022-11-09T07:29:03.023Z,99671.38
2022-11-09T07:31:32.590Z,99665.97
2022-11-09T07:34:04.910Z,99668.53
2022-11-09T07:36:36.691Z,99658.78
2022-11-09T07:39:09.065Z,99664.94
2022-11-09T07:41:38.643Z,99669.41
2022-11-09T07:44:08.968Z,99668.34
2022-11-09T07:46:39.129Z,99669.00
2022-11-09T07:49:08.654Z,99668.91
2022-11-09T07:51:38.367Z,99679.44
2022-11-09T07:54:10.758Z,99682.19
2022-11-09T07:56:41.097Z,99680.66
2022-11-09T07:59:10.768Z,99686.84
2022-11-09T08:01:40.386Z,99690.53
2022-11-09T08:04:10.357Z,99685.31
2022-11-09T08:06:40.094Z,99684.78
2022-11-09T08:09:12.266Z,99687.25
2022-11-09T08:11:41.838Z,99691.25
2022-11-09T08:14:11.736Z,99692.69
2022-11-09T08:16:41.414Z,99690.19
2022-11-09T08:19:11.634Z,99696.34
2022-11-09T08:21:41.254Z,99696.16
2022-11-09T08:24:13.424Z,99680.63
2022-11-09T08:26:43.022Z,99691.25
2022-11-09T08:29:13.581Z,99697.84
2022-11-09T08:31:43.147Z,99699.81
2022-11-09T08:34:13.997Z,99700.28
2022-11-09T08:36:43.602Z,99702.69
2022-11-09T08:39:15.789Z,99710.72
2022-11-09T08:41:45.352Z,99709.84
2022-11-09T08:44:14.887Z,99701.72
2022-11-09T08:46:44.450Z,99700.25
2022-11-09T08:49:14.007Z,99705.13
2022-11-09T08:51:43.563Z,99701.16
2022-11-09T08:54:17.995Z,99708.78
2022-11-09T08:56:47.633Z,99711.50
2022-11-09T08:59:17.185Z,99708.50
2022-11-09T09:01:46.792Z,99711.44
2022-11-09T09:04:16.394Z,99704.09
2022-11-09T09:06:46.107Z,99705.22
2022-11-09T09:09:18.388Z,99707.28
2022-11-09T09:11:47.975Z,99707.75
2022-11-09T09:14:18.015Z,99696.38
2022-11-09T09:16:47.621Z,99705.28
2022-11-09T09:19:17.250Z,99703.31
2022-11-09T09:21:46.830Z,99707.88
2022-11-09T09:24:18.984Z,99712.47
2022-11-09T09:26:48.599Z,99713.66
2022-11-09T09:29:18.249Z,99718.06
2022-11-09T09:31:47.845Z,99704.34
2022-11-09T09:34:18.069Z,99707.19
2022-11-09T09:36:48.527Z,99697.84
2022-11-09T09:39:20.833Z,99715.09
2022-11-09T09:41:55.931Z,99720.53
2022-11-09T09:44:31.061Z,99726.38
2022-11-09T09:47:09.203Z,99729.47
2022-11-09T09:49:42.299Z,99725.78
2022-11-09T09:52:19.875Z,99730.66
2022-11-09T09:54:57.444Z,99741.19
2022-11-09T09:57:31.844Z,99744.34
2022-11-09T10:00:04.112Z,99744.66
2022-11-09T10:02:41.532Z,99749.72
2022-11-09T10:05:14.989Z,99748.66
2022-11-09T10:07:48.687Z,99760.72
2022-11-09T10:10:30.720Z,99762.50
2022-11-09T10:13:15.621Z,99759.72
2022-11-09T10:15:47.864Z,99763.91
2022-11-09T10:18:28.368Z,99765.13
2022-11-09T10:21:23.593Z,99758.09
2022-11-09T10:24:06.004Z,99765.50
2022-11-09T10:26:42.798Z,99772.91
2022-11-09T10:29:22.995Z,99778.50
2022-11-09T10:31:54.920Z,99774.69
2022-11-09T10:34:28.330Z,99770.56
2022-11-09T10:37:04.871Z,99774.19
2022-11-09T10:39:42.633Z,99771.63
2022-11-09T10:42:33.647Z,99784.28
2022-11-09T10:45:30.055Z,99773.94
2022-11-09T10:48:33.804Z,99785.22
2022-11-09T10:51:36.723Z,99778.84
2022-11-09T10:54:26.594Z,99792.16
2022-11-09T10:57:18.600Z,99790.03
2022-11-09T11:00:18.011Z,99782.16
2022-11-09T11:03:14.185Z,99786.00
2022-11-09T11:06:03.713Z,99782.63
2022-11-09T11:08:52.739Z,99788.09
2022-11-09T11:11:42.010Z,99801.75
2022-11-09T11:14:33.219Z,99796.78
2022-11-09T11:17:29.924Z,99796.59
2022-11-09T11:20:30.259Z,99795.31
2022-11-09T11:23:20.530Z,99787.78
2022-11-09T11:26:28.418Z,99789.16
2022-11-09T11:29:32.052Z,99781.00
2022-11-09T11:32:21.771Z,99784.13
2022-11-09T11:35:18.532Z,99793.41
2022-11-09T11:38:24.497Z,99794.78
2022-11-09T11:41:27.353Z,99793.19
2022-11-09T11:44:24.287Z,99795.88
2022-11-09T11:47:16.753Z,99797.47
2022-11-09T11:50:27.636Z,99790.94
2022-11-09T11:53:23.101Z,99790.75
2022-11-09T11:56:21.713Z,99790.41
2022-11-09T11:59:23.532Z,99799.66
2022-11-09T12:02:29.673Z,99791.13
2022-11-09T12:05:46.670Z,99791.28
2022-11-09T12:08:43.147Z,99782.97
2022-11-09T12:11:40.919Z,99786.00
2022-11-09T12:14:37.879Z,99788.47
2022-11-09T12:17:32.099Z,99792.28
2022-11-09T12:20:38.665Z,99784.31
2022-11-09T12:23:40.915Z,99788.97
2022-11-09T12:26:37.261Z,99785.97
2022-11-09T12:29:28.744Z,99789.34
2022-11-09T12:32:23.583Z,99790.19
2022-11-09T12:35:33.374Z,99781.84
2022-11-09T12:38:24.618Z,99783.44
2022-11-09T12:41:17.263Z,99784.94
2022-11-09T12:44:07.523Z,99790.81
2022-11-09T12:47:00.904Z,99786.81
2022-11-09T12:49:49.858Z,99784.97
2022-11-09T12:52:40.919Z,99791.88
2022-11-09T12:55:33.914Z,99791.91
2022-11-09T12:58:24.909Z,99799.03
2022-11-09T13:01:15.306Z,99802.28
2022-11-09T13:04:05.572Z,99798.25
2022-11-09T13:07:19.415Z,99802.72
2022-11-09T13:10:27.270Z,99798.25
2022-11-09T13:13:24.151Z,99802.94
2022-11-09T13:16:15.053Z,99802.31
2022-11-09T13:19:03.379Z,99804.88
2022-11-09T13:21:51.651Z,99795.91
2022-11-09T13:24:59.995Z,99796.78
2022-11-09T13:27:51.058Z,99798.34
2022-11-09T13:30:42.089Z,99805.25
2022-11-09T13:33:30.643Z,99803.34
2022-11-09T13:36:21.186Z,99810.50
2022-11-09T13:39:31.230Z,99819.31
2022-11-09T13:42:32.585Z,99825.19
2022-11-09T13:45:36.796Z,99823.28
2022-11-09T13:48:34.725Z,99824.66
2022-11-09T13:51:25.976Z,99815.44
2022-11-09T13:54:32.316Z,99835.44
2022-11-09T13:57:20.385Z,99835.03
2022-11-09T14:00:10.597Z,99846.88
2022-11-09T14:03:03.124Z,99842.94
2022-11-09T14:05:53.562Z,99839.66
2022-11-09T14:08:43.906Z,99847.03
2022-11-09T14:11:51.629Z,99831.78
2022-11-09T14:14:57.421Z,99845.75
2022-11-09T14:17:54.263Z,99854.94
2022-11-09T14:20:53.156Z,99867.31
2022-11-09T14:23:41.037Z,99860.91
2022-11-09T14:26:29.060Z,99869.88
2022-11-09T14:29:24.117Z,99877.38
2022-11-09T14:32:28.551Z,99878.75
2022-11-09T14:35:25.867Z,99870.31
2022-11-09T14:38:23.477Z,99881.19
2022-11-09T14:41:22.809Z,99878.88
2022-11-09T14:44:16.730Z,99886.28
2022-11-09T14:47:06.245Z,99889.47
2022-11-09T14:49:54.406Z,99889.91
2022-11-09T14:52:43.290Z,99886.69
2022-11-09T14:55:42.275Z,99885.19
2022-11-09T14:58:31.317Z,99889.03
2022-11-09T15:01:24.250Z,99896.47
2022-11-09T15:04:16.939Z,99904.88
2022-11-09T15:07:07.022Z,99915.19
2022-11-09T15:09:58.646Z,99913.13
2022-11-09T15:12:54.979Z,99912.78
2022-11-09T15:15:43.394Z,99909.56
2022-11-09T15:18:34.627Z,99912.44
2022-11-09T15:21:36.285Z,99928.06
2022-11-09T15:24:26.536Z,99920.88
2022-11-09T15:27:31.733Z,99930.50
2022-11-09T15:30:38.950Z,99934.50
2022-11-09T15:33:32.353Z,99934.78
2022-11-09T15:36:40.902Z,99933.09
2022-11-09T15:39:33.220Z,99937.63
2022-11-09T15:42:21.265Z,99938.00
2022-11-09T15:45:11.295Z,99940.94
2022-11-09T15:48:01.949Z,99949.22
2022-11-09T15:50:50.196Z,99951.19
2022-11-09T15:53:38.521Z,99960.06
2022-11-09T15:56:27.357Z,99954.72
2022-11-09T15:59:21.499Z,99958.34
2022-11-09T16:02:09.743Z,99962.78
2022-11-09T16:05:00.486Z,99970.84
2022-11-09T16:07:52.394Z,99969.53
2022-11-09T16:10:41.195Z,99977.88
2022-11-09T16:13:29.596Z,99980.72
2022-11-09T16:16:18.373Z,99983.66
2022-11-09T16:19:06.610Z,99981.09
2022-11-09T16:21:58.541Z,99994.56
2022-11-09T16:24:47.054Z,99989.44
2022-11-09T16:27:49.550Z,100001.19
2022-11-09T16:30:41.627Z,100006.59
2022-11-09T16:33:33.853Z,100012.22
2022-11-09T16:36:23.858Z,100012.94
2022-11-09T16:39:17.216Z,100025.88
2022-11-09T16:42:09.374Z,100021.88
2022-11-09T16:45:00.377Z,100036.56
2022-11-09T16:47:50.253Z,100035.34
2022-11-09T16:50:38.295Z,100040.53
2022-11-09T16:53:27.420Z,100053.59
2022-11-09T16:56:18.077Z,100055.22
2022-11-09T16:59:06.115Z,100062.13
2022-11-09T17:01:54.781Z,100067.00
2022-11-09T17:04:42.984Z,100058.69
2022-11-09T17:07:31.920Z,100067.88
2022-11-09T17:10:20.886Z,100062.13
2022-11-09T17:13:11.490Z,100067.69
2022-11-09T17:15:59.804Z,100068.53
2022-11-09T17:18:47.956Z,100073.84
2022-11-09T17:21:36.026Z,100078.13
2022-11-09T17:24:23.993Z,100087.63
2022-11-09T17:27:12.378Z,100091.06
2022-11-09T17:30:02.934Z,100088.25
2022-11-09T17:32:51.128Z,100089.00
2022-11-09T17:35:40.151Z,100104.00
2022-11-09T17:38:28.455Z,100115.44
2022-11-09T17:41:18.417Z,100120.63
2022-11-09T17:44:06.941Z,100124.91
2022-11-09T17:46:57.710Z,100123.81
2022-11-09T17:49:45.706Z,100128.78
2022-11-09T17:52:33.847Z,100131.13
2022-11-09T17:55:22.035Z,100139.53
2022-11-09T17:58:11.852Z,100136.63
2022-11-09T18:00:59.898Z,100136.34
2022-11-09T18:03:51.232Z,100149.44
2022-11-09T18:06:39.703Z,100154.66
2022-11-09T18:09:40.893Z,100167.75
2022-11-09T18:12:30.057Z,100163.41
2022-11-09T18:15:18.274Z,100168.72
2022-11-09T18:18:07.000Z,100177.59
2022-11-09T18:20:57.929Z,100174.25
2022-11-09T18:23:46.773Z,100186.19
2022-11-09T18:26:35.016Z,100188.63
2022-11-09T18:29:23.759Z,100180.44
2022-11-09T18:32:11.975Z,100193.47
2022-11-09T18:34:59.965Z,100190.59
2022-11-09T18:37:50.513Z,100198.25
2022-11-09T18:40:38.872Z,100202.34
2022-11-09T18:43:26.910Z,100206.31
2022-11-09T18:46:16.855Z,100208.50
2022-11-09T18:49:08.950Z,100212.31
2022-11-09T18:51:59.940Z,100223.03
2022-11-09T18:54:50.885Z,100225.59
2022-11-09T18:57:39.156Z,100221.19
2022-11-09T19:00:27.030Z,100228.25
2022-11-09T19:03:17.391Z,100238.09
2022-11-09T19:06:08.273Z,100242.56
2022-11-09T19:09:09.050Z,100250.53
2022-11-09T19:12:00.939Z,100246.09
2022-11-09T19:14:49.462Z,100253.81
2022-11-09T19:17:37.823Z,100259.63
2022-11-09T19:20:26.079Z,100266.34
2022-11-09T19:23:14.103Z,100258.25
2022-11-09T19:26:03.807Z,100260.81
2022-11-09T19:28:54.588Z,100265.13
2022-11-09T19:31:43.357Z,100272.19
2022-11-09T19:34:31.701Z,100264.31
2022-11-09T19:37:19.595Z,100273.34
2022-11-09T19:40:09.420Z,100278.91
2022-11-09T19:42:57.725Z,100273.03
2022-11-09T19:45:48.315Z,100281.25
2022-11-09T19:48:36.565Z,100273.53
2022-11-09T19:51:24.873Z,100282.56
2022-11-09T19:54:15.269Z,100287.19
2022-11-09T19:57:03.265Z,100290.06
2022-11-09T19:59:51.254Z,100300.81
2022-11-09T20:02:41.694Z,100307.13
2022-11-09T20:05:31.140Z,100298.38
2022-11-09T20:08:19.717Z,100309.94
2022-11-09T20:11:09.121Z,100310.03
2022-11-09T20:13:57.415Z,100315.41
2022-11-09T20:16:47.906Z,100325.06
2022-11-09T20:19:38.442Z,100329.56
2022-11-09T20:22:26.394Z,100328.56
2022-11-09T20:25:14.387Z,100340.81
2022-11-09T20:28:02.457Z,100346.97
2022-11-09T20:30:50.343Z,100357.63
2022-11-09T20:33:38.383Z,100359.50
2022-11-09T20:36:29.054Z,100360.28
2022-11-09T20:39:18.170Z,100371.69
2022-11-09T20:42:07.288Z,100376.84
2022-11-09T20:44:56.647Z,100382.72
2022-11-09T20:48:05.045Z,100388.53
2022-11-09T20:50:52.919Z,100388.19
2022-11-09T20:53:43.511Z,100387.81
2022-11-09T20:56:31.603Z,100385.91
2022-11-09T20:59:19.693Z,100397.28
2022-11-09T21:02:08.086Z,100390.28
2022-11-09T21:04:55.988Z,100401.97
2022-11-09T21:07:44.132Z,100405.00
2022-11-09T21:10:34.916Z,100411.53
2022-11-09T21:13:23.238Z,100409.06
2022-11-09T21:16:13.162Z,100406.78
2022-11-09T21:19:01.099Z,100416.84
2022-11-09T21:21:49.257Z,100425.19
2022-11-09T21:24:50.198Z,100431.53
2022-11-09T21:27:53.467Z,100425.50
2022-11-09T21:30:41.485Z,100431.63
2022-11-09T21:33:29.519Z,100417.56
2022-11-09T21:36:18.210Z,100424.84
2022-11-09T21:39:06.548Z,100424.28
2022-11-09T21:41:54.762Z,100436.88
2022-11-09T21:44:45.540Z,100445.81
2022-11-09T21:47:33.415Z,100445.97
2022-11-09T21:50:21.612Z,100451.47
2022-11-09T21:53:09.759Z,100442.63
2022-11-09T21:55:57.714Z,100453.84
2022-11-09T21:58:46.067Z,100450.22
2022-11-09T22:01:37.185Z,100451.09
2022-11-09T22:04:25.565Z,100447.69
2022-11-09T22:07:13.947Z,100457.47
2022-11-09T22:10:11.169Z,100467.34
2022-11-09T22:13:12.564Z,100473.81
2022-11-09T22:16:10.216Z,100466.09
2022-11-09T22:19:14.072Z,100469.94
2022-11-09T22:22:02.208Z,100471.06
2022-11-09T22:24:50.354Z,100474.75
2022-11-09T22:27:38.612Z,100466.97
2022-11-09T22:30:26.859Z,100467.94
2022-11-09T22:33:15.641Z,100470.72
2022-11-09T22:36:08.165Z,100475.22
2022-11-09T22:38:56.382Z,100469.97
2022-11-09T22:41:47.422Z,100477.88
2022-11-09T22:44:35.440Z,100477.75
2022-11-09T22:47:23.797Z,100472.25
2022-11-09T22:50:12.522Z,100477.31
2022-11-09T22:53:04.103Z,100488.56
2022-11-09T22:55:54.984Z,100485.81
2022-11-09T22:58:44.360Z,100490.84
2022-11-09T23:01:32.723Z,100508.22
2022-11-09T23:04:21.105Z,100501.69
2022-11-09T23:07:09.503Z,100497.00
2022-11-09T23:10:00.479Z,100506.47
2022-11-09T23:12:48.502Z,100499.22
2022-11-09T23:15:36.427Z,100516.75
2022-11-09T23:18:36.964Z,100520.25
2022-11-09T23:21:27.327Z,100514.84
2022-11-09T23:24:37.330Z,100526.06
2022-11-09T23:27:27.987Z,100523.25
2022-11-09T23:30:16.418Z,100525.00
2022-11-09T23:33:05.160Z,100529.63
2022-11-09T23:35:53.059Z,100541.56
2022-11-09T23:38:42.066Z,100544.78
2022-11-09T23:41:29.960Z,100550.56
2022-11-09T23:44:20.532Z,100547.22
2022-11-09T23:47:08.508Z,100555.84
2022-11-09T23:49:56.502Z,100563.41
2022-11-09T23:52:44.748Z,100567.44
2022-11-09T23:55:33.032Z,100579.41
2022-11-09T23:58:21.021Z,100581.75
